Honolulu, HI

7:01 AM HST on October 25, 2014 (GMT -1000)
Pacific Heights | Change Station
CLOSE
Current Station
Personal Weather Station
Location: Honolulu, HI
Elevation: 528 ft
Nearby Weather Stations

Elev 528 ft 21.33 °N, 157.84 °W | Updated 12 seconds ago

Scattered Clouds
Scattered Clouds
74.5 °F
Feels Like 74 °F
N
4.0
Wind Variable Wind from ENE
Gusts 8.0 mph

Today
High -- | Low -- °F
--% Chance of Precip.
Yesterday
High -- | Low -- °F
Precip. -- in
6:31 AM 5:59 PM
Waxing Crescent, 3% visible
Pressure 30.01 in
Visibility 10.0 miles
Clouds Few 2400 ft
Scattered Clouds 3800 ft
Scattered Clouds 4700 ft
Heat Index 74 °F
Dew Point 70 °F
Humidity 86%
Rainfall 0.00 in
Snow Depth Not available.
UV 0 out of 12
Pollen Not available.
PM2.5 Good
Flu Activity Sporadic
METAR PHNL 251653Z VRB05KT 10SM FEW024 SCT038 SCT047 23/21 A3001 RMK AO2 SLP163 VCSH NE-E T02330211

More Conditions Fewer Conditions

Pressure 30.01 in
Visibility 10.0 miles
Clouds Few 2400 ft
Scattered Clouds 3800 ft
Scattered Clouds 4700 ft
Heat Index 74 °F
Dew Point 70 °F
Humidity 86%
Rainfall 0.00 in
Snow Depth Not available.
UV 0 out of 12
Pollen Not available.
PM2.5 Good
Flu Activity Sporadic
METAR PHNL 251653Z VRB05KT 10SM FEW024 SCT038 SCT047 23/21 A3001 RMK AO2 SLP163 VCSH NE-E T02330211

More Conditions Fewer Conditions

10-Day Weather Forecast

Almanac

Astronomy

Oct. 25, 2014 Rise Set
Actual Time 6:31 AM HST 5:59 PM HST
Civil Twilight 6:08 AM HST 6:21 PM HST
Nautical Twilight 5:42 AM HST 6:48 PM HST
Astronomical Twilight 5:16 AM HST 7:14 PM HST
Moon 8:11 AM HST 7:42 PM HST
Length of Visible Light 12h 13m
Length of Day
11h 28m
Tomorrow will be 1m 6s shorter.
Waxing Crescent, 3% of the Moon is Illuminated
Today
Waxing Crescent
Oct 30
First Quarter
Nov 6
Full
Nov 14
Last Quarter
Nov 22
New

Today's Extremes

State Highs State Lows

Community

WunderPhotos

Upload Photos

1,764,909 photos uploaded!

Nearby

Air Quality

  Air Quality AQ Index Pollutant
Yesterday Good
PM10
Current Good
PM2.5
Saturday Good
OZONE

Snow Depth

Station Depth Elevation
No new snow has been reported.

Earthquake Activity

City Distance Mag. Time & Date
No recent earthquake activity has been reported nearby.
Minimum magnitude displayed is 2.5.

Coastal Water Temperatures

Place Temperature
No Stations Reporting

Nearby Weather Stations